Terminal Aerodrome Forecast
Issued by NWS

Home | Current Version | Previous Version | Text Only | Print | Product List | Glossary Off
Versions: 1 2 3 4 5 6 7 8 9 10 11 12 13 14 15

000
FTUS43 KPAH 270520
TAFCGI
TAF
KCGI 270520Z 2706/2806 00000KT P6SM SKC
     FM270900 00000KT 3SM BR SKC
      TEMPO 2709/2713 1/4SM FG BKN001
     FM271500 05005KT P6SM FEW050=

USA.gov is the U.S. government's official web portal to all federal, state and local government web resources and services.